Time;durP1;ratioP1;P1;durP2;ratioP2;P2;SDS_P1;SDS_P2;PMS_P1;PMS_P2;Temp;Humidity;BMP_temperature;BMP_pressure;BME280_temperature;BME280_humidity;BME280_pressure;Samples;Min_cycle;Max_cycle;Signal;HPM_P1;HPM_P2
2022/09/26 00:00:00;;;;;;;0.6;0.6;;;;;;;12.1;100.0;100720;;;;
2022/09/26 00:01:10;;;;;;;0.6;0.6;;;;;;;12.0;100.0;100720;;;;
2022/09/26 00:02:00;;;;;;;0.6;0.6;;;;;;;12.0;100.0;100720;;;;
2022/09/26 00:03:00;;;;;;;0.6;0.6;;;;;;;12.0;100.0;100720;;;;
2022/09/26 00:04:02;;;;;;;0.6;0.6;;;;;;;12.0;100.0;100710;;;;
2022/09/26 00:05:00;;;;;;;0.6;0.6;;;;;;;12.0;100.0;100710;;;;
2022/09/26 00:06:01;;;;;;;0.6;0.6;;;;;;;11.9;100.0;100720;;;;
2022/09/26 00:07:00;;;;;;;0.6;0.6;;;;;;;11.9;100.0;100720;;;;
2022/09/26 00:08:00;;;;;;;0.6;0.6;;;;;;;11.9;100.0;100710;;;;
2022/09/26 00:09:00;;;;;;;0.6;0.6;;;;;;;11.9;100.0;100710;;;;
2022/09/26 00:10:00;;;;;;;0.6;0.6;;;;;;;12.0;100.0;100710;;;;
2022/09/26 00:11:01;;;;;;;0.6;0.6;;;;;;;12.0;100.0;100710;;;;
2022/09/26 00:12:00;;;;;;;0.6;0.6;;;;;;;12.1;100.0;100710;;;;
2022/09/26 00:13:00;;;;;;;0.6;0.6;;;;;;;12.1;100.0;100710;;;;
2022/09/26 00:14:02;;;;;;;0.6;0.6;;;;;;;12.0;100.0;100700;;;;
2022/09/26 00:15:00;;;;;;;0.6;0.6;;;;;;;12.0;100.0;100700;;;;
2022/09/26 00:16:00;;;;;;;0.6;0.6;;;;;;;12.1;100.0;100700;;;;
2022/09/26 00:17:00;;;;;;;0.6;0.6;;;;;;;12.1;100.0;100700;;;;
2022/09/26 00:18:00;;;;;;;0.6;0.6;;;;;;;12.1;100.0;100700;;;;
2022/09/26 00:19:00;;;;;;;0.6;0.6;;;;;;;12.1;100.0;100700;;;;
2022/09/26 00:20:00;;;;;;;0.6;0.6;;;;;;;11.9;100.0;100700;;;;
2022/09/26 00:21:04;;;;;;;0.6;0.6;;;;;;;11.9;100.0;100700;;;;
2022/09/26 00:22:00;;;;;;;0.6;0.6;;;;;;;11.9;100.0;100690;;;;
2022/09/26 00:23:00;;;;;;;0.6;0.6;;;;;;;11.9;100.0;100690;;;;
2022/09/26 00:24:00;;;;;;;0.6;0.6;;;;;;;12.0;100.0;100690;;;;
2022/09/26 00:25:00;;;;;;;0.6;0.6;;;;;;;12.0;100.0;100690;;;;
2022/09/26 00:26:00;;;;;;;0.6;0.6;;;;;;;11.9;100.0;100690;;;;
2022/09/26 00:27:00;;;;;;;0.6;0.6;;;;;;;11.9;100.0;100690;;;;
2022/09/26 00:28:00;;;;;;;0.6;0.6;;;;;;;11.9;100.0;100680;;;;
2022/09/26 00:29:03;;;;;;;0.6;0.6;;;;;;;11.9;100.0;100680;;;;
2022/09/26 00:30:00;;;;;;;0.6;0.6;;;;;;;12.0;100.0;100680;;;;
2022/09/26 00:31:08;;;;;;;0.6;0.6;;;;;;;12.1;100.0;100680;;;;
2022/09/26 00:32:00;;;;;;;0.6;0.6;;;;;;;12.1;100.0;100680;;;;
2022/09/26 00:33:00;;;;;;;0.6;0.6;;;;;;;12.1;100.0;100680;;;;
2022/09/26 00:34:00;;;;;;;0.6;0.6;;;;;;;12.0;100.0;100670;;;;
2022/09/26 00:35:00;;;;;;;1.6;1.5;;;;;;;12.0;100.0;100670;;;;
2022/09/26 00:36:00;;;;;;;1.6;1.5;;;;;;;11.9;100.0;100670;;;;
2022/09/26 00:37:00;;;;;;;1.6;1.5;;;;;;;11.9;100.0;100670;;;;
2022/09/26 00:38:00;;;;;;;1.6;1.5;;;;;;;11.9;100.0;100670;;;;
2022/09/26 00:39:00;;;;;;;1.6;1.5;;;;;;;11.9;100.0;100670;;;;
2022/09/26 00:40:00;;;;;;;1.6;1.5;;;;;;;12.0;100.0;100670;;;;
2022/09/26 00:41:00;;;;;;;1.6;1.5;;;;;;;12.0;100.0;100670;;;;
2022/09/26 00:42:00;;;;;;;1.6;1.5;;;;;;;12.0;100.0;100660;;;;
2022/09/26 00:43:00;;;;;;;1.6;1.5;;;;;;;12.0;100.0;100660;;;;
2022/09/26 00:44:00;;;;;;;1.6;1.5;;;;;;;12.0;100.0;100660;;;;
2022/09/26 00:45:00;;;;;;;1.6;1.5;;;;;;;12.0;100.0;100660;;;;
2022/09/26 00:46:10;;;;;;;1.6;1.5;;;;;;;12.0;100.0;100650;;;;
2022/09/26 00:47:00;;;;;;;1.6;1.5;;;;;;;12.0;100.0;100650;;;;
2022/09/26 00:48:02;;;;;;;1.6;1.5;;;;;;;12.0;100.0;100650;;;;
2022/09/26 00:49:10;;;;;;;1.6;1.5;;;;;;;12.0;100.0;100650;;;;
2022/09/26 00:50:03;;;;;;;1.6;1.5;;;;;;;12.0;100.0;100650;;;;
2022/09/26 00:51:00;;;;;;;1.6;1.5;;;;;;;12.0;100.0;100650;;;;
2022/09/26 00:52:00;;;;;;;1.6;1.5;;;;;;;12.1;100.0;100650;;;;
2022/09/26 00:53:07;;;;;;;1.6;1.5;;;;;;;11.9;100.0;100640;;;;
2022/09/26 00:54:00;;;;;;;1.6;1.5;;;;;;;11.9;100.0;100640;;;;
2022/09/26 00:55:01;;;;;;;0.6;0.6;;;;;;;11.9;100.0;100640;;;;
2022/09/26 00:56:04;;;;;;;0.6;0.6;;;;;;;11.9;100.0;100640;;;;
2022/09/26 00:57:05;;;;;;;0.6;0.6;;;;;;;12.0;100.0;100640;;;;
2022/09/26 00:58:05;;;;;;;0.6;0.6;;;;;;;12.0;100.0;100640;;;;
2022/09/26 00:59:06;;;;;;;0.6;0.6;;;;;;;12.0;100.0;100640;;;;
2022/09/26 01:00:03;;;;;;;0.6;0.6;;;;;;;11.9;100.0;100630;;;;
2022/09/26 01:01:01;;;;;;;0.6;0.6;;;;;;;11.9;100.0;100630;;;;
2022/09/26 01:02:01;;;;;;;0.6;0.6;;;;;;;11.9;100.0;100630;;;;
2022/09/26 01:03:00;;;;;;;0.6;0.6;;;;;;;11.9;100.0;100630;;;;
2022/09/26 01:04:01;;;;;;;0.6;0.6;;;;;;;11.9;100.0;100630;;;;
2022/09/26 01:05:00;;;;;;;0.6;0.6;;;;;;;11.9;100.0;100630;;;;
2022/09/26 01:06:00;;;;;;;0.6;0.6;;;;;;;12.1;100.0;100620;;;;
2022/09/26 01:07:02;;;;;;;0.6;0.6;;;;;;;12.1;100.0;100620;;;;
2022/09/26 01:08:01;;;;;;;0.6;0.6;;;;;;;12.1;100.0;100610;;;;
2022/09/26 01:09:06;;;;;;;0.6;0.6;;;;;;;12.1;100.0;100610;;;;
2022/09/26 01:10:01;;;;;;;0.6;0.6;;;;;;;12.0;100.0;100610;;;;
2022/09/26 01:11:01;;;;;;;0.6;0.6;;;;;;;12.0;100.0;100610;;;;
2022/09/26 01:12:01;;;;;;;0.6;0.6;;;;;;;12.1;100.0;100610;;;;
2022/09/26 01:13:00;;;;;;;0.6;0.6;;;;;;;12.1;100.0;100610;;;;
2022/09/26 01:14:00;;;;;;;0.6;0.6;;;;;;;11.9;100.0;100600;;;;
2022/09/26 01:15:00;;;;;;;0.7;0.7;;;;;;;11.9;100.0;100600;;;;
2022/09/26 01:16:00;;;;;;;0.7;0.7;;;;;;;12.1;100.0;100600;;;;
2022/09/26 01:17:00;;;;;;;0.7;0.7;;;;;;;12.1;100.0;100600;;;;
2022/09/26 01:18:00;;;;;;;0.7;0.7;;;;;;;11.9;100.0;100600;;;;
2022/09/26 01:19:02;;;;;;;0.7;0.7;;;;;;;11.9;100.0;100600;;;;
2022/09/26 01:20:10;;;;;;;0.7;0.7;;;;;;;12.0;100.0;100590;;;;
2022/09/26 01:21:07;;;;;;;0.7;0.7;;;;;;;11.9;100.0;100590;;;;
2022/09/26 01:22:10;;;;;;;0.7;0.7;;;;;;;11.9;100.0;100590;;;;
2022/09/26 01:23:10;;;;;;;0.7;0.7;;;;;;;11.9;100.0;100580;;;;
2022/09/26 01:24:00;;;;;;;0.7;0.7;;;;;;;11.9;100.0;100580;;;;
2022/09/26 01:25:10;;;;;;;0.7;0.7;;;;;;;11.9;100.0;100580;;;;
2022/09/26 01:26:01;;;;;;;0.7;0.7;;;;;;;11.9;100.0;100580;;;;
2022/09/26 01:27:09;;;;;;;0.7;0.7;;;;;;;11.8;100.0;100570;;;;
2022/09/26 01:28:10;;;;;;;0.7;0.7;;;;;;;11.8;100.0;100570;;;;
2022/09/26 01:29:10;;;;;;;0.7;0.7;;;;;;;11.8;100.0;100570;;;;
2022/09/26 01:30:04;;;;;;;0.7;0.7;;;;;;;11.8;100.0;100570;;;;
2022/09/26 01:31:05;;;;;;;0.7;0.7;;;;;;;11.8;100.0;100570;;;;
2022/09/26 01:33:01;;;;;;;0.7;0.7;;;;;;;11.8;100.0;100570;;;;
2022/09/26 01:34:01;;;;;;;0.7;0.7;;;;;;;11.9;100.0;100560;;;;
2022/09/26 01:35:06;;;;;;;0.7;0.7;;;;;;;12.0;100.0;100560;;;;
2022/09/26 01:36:07;;;;;;;0.7;0.7;;;;;;;12.0;100.0;100560;;;;
2022/09/26 01:37:00;;;;;;;0.7;0.7;;;;;;;12.0;100.0;100560;;;;
2022/09/26 01:38:10;;;;;;;0.7;0.7;;;;;;;11.9;100.0;100550;;;;
2022/09/26 01:39:10;;;;;;;0.7;0.7;;;;;;;11.9;100.0;100540;;;;
2022/09/26 01:40:07;;;;;;;0.7;0.7;;;;;;;11.9;100.0;100540;;;;
2022/09/26 01:41:10;;;;;;;0.7;0.7;;;;;;;11.9;100.0;100540;;;;
2022/09/26 01:42:03;;;;;;;0.7;0.7;;;;;;;11.9;100.0;100540;;;;
2022/09/26 01:43:04;;;;;;;0.7;0.7;;;;;;;11.9;100.0;100540;;;;
2022/09/26 01:44:03;;;;;;;0.7;0.7;;;;;;;12.0;100.0;100530;;;;
2022/09/26 01:45:06;;;;;;;0.7;0.7;;;;;;;11.9;100.0;100530;;;;
2022/09/26 01:46:00;;;;;;;0.7;0.7;;;;;;;11.9;100.0;100530;;;;
2022/09/26 01:47:00;;;;;;;0.7;0.7;;;;;;;11.9;100.0;100530;;;;
2022/09/26 01:48:07;;;;;;;0.7;0.7;;;;;;;12.0;100.0;100520;;;;
2022/09/26 01:49:08;;;;;;;0.7;0.7;;;;;;;11.9;100.0;100520;;;;
2022/09/26 01:50:05;;;;;;;0.7;0.7;;;;;;;11.9;100.0;100520;;;;
2022/09/26 01:51:02;;;;;;;0.7;0.7;;;;;;;11.9;100.0;100520;;;;
2022/09/26 01:52:10;;;;;;;0.7;0.7;;;;;;;11.9;100.0;100520;;;;
2022/09/26 01:53:03;;;;;;;0.7;0.7;;;;;;;11.9;100.0;100520;;;;
2022/09/26 01:54:05;;;;;;;0.7;0.7;;;;;;;11.9;100.0;100510;;;;
2022/09/26 01:55:10;;;;;;;0.6;0.6;;;;;;;11.9;100.0;100510;;;;
2022/09/26 01:56:02;;;;;;;0.6;0.6;;;;;;;11.9;100.0;100510;;;;
2022/09/26 01:57:01;;;;;;;0.6;0.6;;;;;;;11.9;100.0;100510;;;;
2022/09/26 01:58:01;;;;;;;0.6;0.6;;;;;;;11.9;100.0;100500;;;;
2022/09/26 01:59:04;;;;;;;0.6;0.6;;;;;;;11.9;100.0;100500;;;;
2022/09/26 02:00:03;;;;;;;0.6;0.6;;;;;;;11.9;100.0;100500;;;;
2022/09/26 02:01:03;;;;;;;0.6;0.6;;;;;;;11.9;100.0;100500;;;;
2022/09/26 02:02:04;;;;;;;0.6;0.6;;;;;;;11.8;100.0;100500;;;;
2022/09/26 02:03:02;;;;;;;0.6;0.6;;;;;;;11.8;100.0;100500;;;;
2022/09/26 02:04:03;;;;;;;0.6;0.6;;;;;;;11.9;100.0;100490;;;;
2022/09/26 02:05:04;;;;;;;0.6;0.6;;;;;;;11.9;100.0;100490;;;;
2022/09/26 02:06:05;;;;;;;0.6;0.6;;;;;;;12.0;100.0;100490;;;;
2022/09/26 02:07:07;;;;;;;0.6;0.6;;;;;;;11.8;100.0;100480;;;;
2022/09/26 02:08:01;;;;;;;0.6;0.6;;;;;;;11.8;100.0;100480;;;;
2022/09/26 02:09:06;;;;;;;0.6;0.6;;;;;;;11.8;100.0;100480;;;;
2022/09/26 02:10:07;;;;;;;0.6;0.6;;;;;;;11.8;100.0;100480;;;;
2022/09/26 02:11:03;;;;;;;0.6;0.6;;;;;;;11.8;100.0;100480;;;;
2022/09/26 02:12:04;;;;;;;0.6;0.6;;;;;;;11.8;100.0;100480;;;;
2022/09/26 02:13:03;;;;;;;0.6;0.6;;;;;;;11.8;100.0;100480;;;;
2022/09/26 02:14:02;;;;;;;0.6;0.6;;;;;;;11.9;100.0;100480;;;;
2022/09/26 02:15:02;;;;;;;0.8;0.8;;;;;;;11.9;100.0;100480;;;;
2022/09/26 02:16:04;;;;;;;0.8;0.8;;;;;;;11.9;100.0;100470;;;;
2022/09/26 02:17:04;;;;;;;0.8;0.8;;;;;;;11.9;100.0;100470;;;;
2022/09/26 02:18:03;;;;;;;0.8;0.8;;;;;;;11.9;100.0;100470;;;;
2022/09/26 02:19:04;;;;;;;0.8;0.8;;;;;;;11.9;100.0;100470;;;;
2022/09/26 02:20:09;;;;;;;0.8;0.8;;;;;;;11.9;100.0;100460;;;;
2022/09/26 02:21:03;;;;;;;0.8;0.8;;;;;;;11.9;100.0;100460;;;;
2022/09/26 02:22:00;;;;;;;0.8;0.8;;;;;;;11.9;100.0;100460;;;;
2022/09/26 02:23:02;;;;;;;0.8;0.8;;;;;;;11.9;100.0;100460;;;;
2022/09/26 02:24:00;;;;;;;0.8;0.8;;;;;;;11.8;100.0;100460;;;;
2022/09/26 02:25:01;;;;;;;0.8;0.8;;;;;;;11.8;100.0;100460;;;;
2022/09/26 02:26:00;;;;;;;0.8;0.8;;;;;;;11.7;100.0;100450;;;;
2022/09/26 02:27:01;;;;;;;0.8;0.8;;;;;;;11.7;100.0;100450;;;;
2022/09/26 02:28:00;;;;;;;0.8;0.8;;;;;;;11.7;100.0;100450;;;;
2022/09/26 02:29:00;;;;;;;0.8;0.8;;;;;;;11.7;100.0;100450;;;;
2022/09/26 02:30:00;;;;;;;0.8;0.8;;;;;;;11.9;100.0;100450;;;;
2022/09/26 02:31:01;;;;;;;0.8;0.8;;;;;;;11.9;100.0;100450;;;;
2022/09/26 02:32:03;;;;;;;0.8;0.8;;;;;;;11.8;100.0;100440;;;;
2022/09/26 02:35:52;;;;;;;0.8;0.8;;;;;;;11.8;100.0;100440;;;;
2022/09/26 02:36:01;;;;;;;0.8;0.8;;;;;;;11.8;100.0;100440;;;;
2022/09/26 02:37:00;;;;;;;0.8;0.8;;;;;;;11.8;100.0;100440;;;;
2022/09/26 02:38:00;;;;;;;0.8;0.8;;;;;;;11.8;100.0;100430;;;;
2022/09/26 02:39:00;;;;;;;0.8;0.8;;;;;;;11.8;100.0;100430;;;;
2022/09/26 02:40:00;;;;;;;0.8;0.8;;;;;;;11.9;100.0;100430;;;;
2022/09/26 02:41:03;;;;;;;0.8;0.8;;;;;;;11.9;100.0;100430;;;;
2022/09/26 02:42:08;;;;;;;0.8;0.8;;;;;;;11.8;100.0;100430;;;;
2022/09/26 02:43:10;;;;;;;0.8;0.8;;;;;;;11.8;100.0;100430;;;;
2022/09/26 02:44:07;;;;;;;0.8;0.8;;;;;;;11.8;100.0;100430;;;;
2022/09/26 02:45:10;;;;;;;0.8;0.8;;;;;;;11.7;100.0;100420;;;;
2022/09/26 02:46:06;;;;;;;0.8;0.8;;;;;;;11.7;100.0;100420;;;;
2022/09/26 02:47:01;;;;;;;0.8;0.8;;;;;;;11.7;100.0;100420;;;;
2022/09/26 02:48:00;;;;;;;0.8;0.8;;;;;;;11.8;100.0;100420;;;;
2022/09/26 02:49:08;;;;;;;0.8;0.8;;;;;;;11.8;100.0;100410;;;;
2022/09/26 02:50:00;;;;;;;0.8;0.8;;;;;;;11.8;100.0;100410;;;;
2022/09/26 02:51:10;;;;;;;0.8;0.8;;;;;;;11.7;100.0;100410;;;;
2022/09/26 02:52:08;;;;;;;0.8;0.8;;;;;;;11.7;100.0;100410;;;;
2022/09/26 02:53:00;;;;;;;0.8;0.8;;;;;;;11.7;100.0;100410;;;;
2022/09/26 02:54:01;;;;;;;0.8;0.8;;;;;;;11.8;100.0;100410;;;;
2022/09/26 02:55:10;;;;;;;0.7;0.7;;;;;;;11.7;100.0;100410;;;;
2022/09/26 02:56:03;;;;;;;0.7;0.7;;;;;;;11.7;100.0;100410;;;;
2022/09/26 02:57:03;;;;;;;0.7;0.7;;;;;;;11.7;100.0;100410;;;;
2022/09/26 02:58:04;;;;;;;0.7;0.7;;;;;;;11.7;100.0;100410;;;;
2022/09/26 02:59:00;;;;;;;0.7;0.7;;;;;;;11.7;100.0;100410;;;;
2022/09/26 03:00:04;;;;;;;0.7;0.7;;;;;;;11.7;100.0;100400;;;;
2022/09/26 03:01:04;;;;;;;0.7;0.7;;;;;;;11.7;100.0;100400;;;;
2022/09/26 03:02:09;;;;;;;0.7;0.7;;;;;;;11.8;100.0;100400;;;;
2022/09/26 03:03:05;;;;;;;0.7;0.7;;;;;;;11.8;100.0;100400;;;;
2022/09/26 03:04:05;;;;;;;0.7;0.7;;;;;;;11.8;100.0;100400;;;;
2022/09/26 03:05:02;;;;;;;0.7;0.7;;;;;;;11.8;100.0;100400;;;;
2022/09/26 03:06:01;;;;;;;0.7;0.7;;;;;;;11.8;100.0;100400;;;;
2022/09/26 03:07:03;;;;;;;0.7;0.7;;;;;;;11.8;100.0;100400;;;;
2022/09/26 03:08:03;;;;;;;0.7;0.7;;;;;;;11.7;100.0;100390;;;;
2022/09/26 03:09:01;;;;;;;0.7;0.7;;;;;;;11.7;100.0;100390;;;;
2022/09/26 03:10:02;;;;;;;0.7;0.7;;;;;;;11.7;100.0;100390;;;;
2022/09/26 03:11:03;;;;;;;0.7;0.7;;;;;;;11.7;100.0;100390;;;;
2022/09/26 03:12:01;;;;;;;0.7;0.7;;;;;;;11.8;100.0;100390;;;;
2022/09/26 03:13:02;;;;;;;0.7;0.7;;;;;;;11.8;100.0;100390;;;;
2022/09/26 03:14:00;;;;;;;0.7;0.7;;;;;;;11.8;100.0;100390;;;;
2022/09/26 03:15:02;;;;;;;0.7;0.7;;;;;;;11.8;100.0;100390;;;;
2022/09/26 03:16:00;;;;;;;0.7;0.7;;;;;;;11.7;100.0;100390;;;;
2022/09/26 03:17:00;;;;;;;0.7;0.7;;;;;;;11.7;100.0;100390;;;;
2022/09/26 03:18:02;;;;;;;0.7;0.7;;;;;;;11.8;100.0;100380;;;;
2022/09/26 03:19:04;;;;;;;0.7;0.7;;;;;;;11.8;100.0;100380;;;;
2022/09/26 03:20:10;;;;;;;0.7;0.7;;;;;;;11.8;100.0;100380;;;;
2022/09/26 03:21:00;;;;;;;0.7;0.7;;;;;;;11.8;100.0;100380;;;;
2022/09/26 03:22:00;;;;;;;0.7;0.7;;;;;;;11.8;100.0;100380;;;;
2022/09/26 03:23:00;;;;;;;0.7;0.7;;;;;;;11.8;100.0;100380;;;;
2022/09/26 03:24:00;;;;;;;0.7;0.7;;;;;;;11.8;100.0;100370;;;;
2022/09/26 03:25:00;;;;;;;0.7;0.7;;;;;;;11.8;100.0;100370;;;;
2022/09/26 03:26:02;;;;;;;0.7;0.7;;;;;;;11.8;100.0;100370;;;;
2022/09/26 03:27:01;;;;;;;0.7;0.7;;;;;;;11.8;100.0;100370;;;;
2022/09/26 03:28:01;;;;;;;0.7;0.7;;;;;;;11.7;100.0;100370;;;;
2022/09/26 03:29:00;;;;;;;0.7;0.7;;;;;;;11.7;100.0;100370;;;;
2022/09/26 03:30:00;;;;;;;0.7;0.7;;;;;;;11.8;100.0;100370;;;;
2022/09/26 03:31:00;;;;;;;0.7;0.7;;;;;;;11.8;100.0;100370;;;;
2022/09/26 03:32:00;;;;;;;0.7;0.7;;;;;;;11.8;100.0;100360;;;;
2022/09/26 03:33:02;;;;;;;0.7;0.7;;;;;;;11.8;100.0;100360;;;;
2022/09/26 03:34:00;;;;;;;0.7;0.7;;;;;;;11.8;100.0;100360;;;;
2022/09/26 03:35:00;;;;;;;0.7;0.7;;;;;;;11.8;100.0;100360;;;;
2022/09/26 03:36:03;;;;;;;0.7;0.7;;;;;;;11.7;100.0;100350;;;;
2022/09/26 03:37:00;;;;;;;0.7;0.7;;;;;;;11.7;100.0;100350;;;;
2022/09/26 03:38:00;;;;;;;0.7;0.7;;;;;;;11.7;100.0;100350;;;;
2022/09/26 03:39:00;;;;;;;0.7;0.7;;;;;;;11.7;100.0;100350;;;;
2022/09/26 03:40:01;;;;;;;0.7;0.7;;;;;;;11.7;100.0;100350;;;;
2022/09/26 03:41:01;;;;;;;0.7;0.7;;;;;;;11.7;100.0;100350;;;;
2022/09/26 03:42:01;;;;;;;0.7;0.7;;;;;;;11.6;100.0;100340;;;;
2022/09/26 03:43:00;;;;;;;0.7;0.7;;;;;;;11.6;100.0;100340;;;;
2022/09/26 03:44:00;;;;;;;0.7;0.7;;;;;;;11.5;100.0;100340;;;;
2022/09/26 03:45:00;;;;;;;0.7;0.7;;;;;;;11.5;100.0;100340;;;;
2022/09/26 03:46:03;;;;;;;0.7;0.7;;;;;;;11.6;100.0;100340;;;;
2022/09/26 03:47:00;;;;;;;0.7;0.7;;;;;;;11.6;100.0;100340;;;;
2022/09/26 03:48:00;;;;;;;0.7;0.7;;;;;;;11.6;100.0;100330;;;;
2022/09/26 03:49:00;;;;;;;0.7;0.7;;;;;;;11.6;100.0;100330;;;;
2022/09/26 03:50:00;;;;;;;0.7;0.7;;;;;;;11.7;100.0;100330;;;;
2022/09/26 03:51:01;;;;;;;0.7;0.7;;;;;;;11.7;100.0;100330;;;;
2022/09/26 03:52:00;;;;;;;0.7;0.7;;;;;;;11.6;100.0;100330;;;;
2022/09/26 03:53:00;;;;;;;0.7;0.7;;;;;;;11.6;100.0;100330;;;;
2022/09/26 03:54:00;;;;;;;0.7;0.7;;;;;;;11.6;100.0;100330;;;;
2022/09/26 03:55:00;;;;;;;9.6;4.0;;;;;;;11.6;100.0;100330;;;;
2022/09/26 03:56:04;;;;;;;9.6;4.0;;;;;;;11.5;100.0;100330;;;;
2022/09/26 03:57:00;;;;;;;9.6;4.0;;;;;;;11.5;100.0;100330;;;;
2022/09/26 03:58:00;;;;;;;9.6;4.0;;;;;;;11.7;100.0;100320;;;;
2022/09/26 03:59:00;;;;;;;9.6;4.0;;;;;;;11.7;100.0;100320;;;;
2022/09/26 04:00:00;;;;;;;9.6;4.0;;;;;;;11.6;100.0;100320;;;;
2022/09/26 04:01:02;;;;;;;9.6;4.0;;;;;;;11.6;100.0;100320;;;;
2022/09/26 04:02:00;;;;;;;9.6;4.0;;;;;;;11.7;100.0;100310;;;;
2022/09/26 04:03:02;;;;;;;9.6;4.0;;;;;;;11.7;100.0;100310;;;;
2022/09/26 04:04:00;;;;;;;9.6;4.0;;;;;;;11.7;100.0;100310;;;;
2022/09/26 04:05:00;;;;;;;9.6;4.0;;;;;;;11.7;100.0;100310;;;;
2022/09/26 04:06:00;;;;;;;9.6;4.0;;;;;;;11.6;100.0;100310;;;;
2022/09/26 04:07:00;;;;;;;9.6;4.0;;;;;;;11.6;100.0;100310;;;;
2022/09/26 04:08:01;;;;;;;9.6;4.0;;;;;;;11.6;100.0;100300;;;;
2022/09/26 04:09:00;;;;;;;9.6;4.0;;;;;;;11.6;100.0;100300;;;;
2022/09/26 04:10:00;;;;;;;9.6;4.0;;;;;;;11.6;100.0;100300;;;;
2022/09/26 04:11:01;;;;;;;9.6;4.0;;;;;;;11.6;100.0;100300;;;;
2022/09/26 04:12:00;;;;;;;9.6;4.0;;;;;;;11.6;100.0;100300;;;;
2022/09/26 04:13:00;;;;;;;9.6;4.0;;;;;;;11.6;100.0;100300;;;;
2022/09/26 04:14:00;;;;;;;0.8;0.8;;;;;;;11.6;100.0;100300;;;;
2022/09/26 04:15:01;;;;;;;0.8;0.8;;;;;;;11.6;100.0;100300;;;;
2022/09/26 04:16:01;;;;;;;0.8;0.8;;;;;;;11.5;100.0;100290;;;;
2022/09/26 04:17:00;;;;;;;0.8;0.8;;;;;;;11.5;100.0;100290;;;;
2022/09/26 04:18:00;;;;;;;0.8;0.8;;;;;;;11.5;100.0;100290;;;;
2022/09/26 04:19:00;;;;;;;0.8;0.8;;;;;;;11.5;100.0;100290;;;;
2022/09/26 04:20:00;;;;;;;0.8;0.8;;;;;;;11.5;100.0;100280;;;;
2022/09/26 04:21:01;;;;;;;0.8;0.8;;;;;;;11.5;100.0;100280;;;;
2022/09/26 04:22:00;;;;;;;0.8;0.8;;;;;;;11.5;100.0;100270;;;;
2022/09/26 04:23:00;;;;;;;0.8;0.8;;;;;;;11.5;100.0;100270;;;;
2022/09/26 04:24:00;;;;;;;0.8;0.8;;;;;;;11.5;100.0;100270;;;;
2022/09/26 04:25:00;;;;;;;0.8;0.8;;;;;;;11.5;100.0;100270;;;;
2022/09/26 04:26:05;;;;;;;0.8;0.8;;;;;;;11.5;100.0;100260;;;;
2022/09/26 04:27:00;;;;;;;0.8;0.8;;;;;;;11.5;100.0;100260;;;;
2022/09/26 04:28:00;;;;;;;0.8;0.8;;;;;;;11.5;100.0;100260;;;;
2022/09/26 04:29:00;;;;;;;0.8;0.8;;;;;;;11.5;100.0;100260;;;;
2022/09/26 04:30:00;;;;;;;0.8;0.8;;;;;;;11.6;100.0;100250;;;;
2022/09/26 04:31:01;;;;;;;0.8;0.8;;;;;;;11.6;100.0;100250;;;;
2022/09/26 04:32:00;;;;;;;0.8;0.8;;;;;;;11.5;100.0;100240;;;;
2022/09/26 04:33:00;;;;;;;0.8;0.8;;;;;;;11.5;100.0;100240;;;;
2022/09/26 04:34:00;;;;;;;0.8;0.8;;;;;;;11.5;100.0;100230;;;;
2022/09/26 04:36:01;;;;;;;0.8;0.8;;;;;;;11.5;100.0;100230;;;;
2022/09/26 04:37:00;;;;;;;0.8;0.8;;;;;;;11.5;100.0;100230;;;;
2022/09/26 04:38:00;;;;;;;0.8;0.8;;;;;;;11.5;100.0;100230;;;;
2022/09/26 04:39:00;;;;;;;0.8;0.8;;;;;;;11.5;100.0;100230;;;;
2022/09/26 04:40:00;;;;;;;0.8;0.8;;;;;;;11.4;100.0;100230;;;;
2022/09/26 04:41:10;;;;;;;0.8;0.8;;;;;;;11.4;100.0;100230;;;;
2022/09/26 04:42:00;;;;;;;0.8;0.8;;;;;;;11.4;100.0;100230;;;;
2022/09/26 04:43:00;;;;;;;0.8;0.8;;;;;;;11.4;100.0;100230;;;;
2022/09/26 04:44:01;;;;;;;0.8;0.8;;;;;;;11.5;100.0;100230;;;;
2022/09/26 04:45:00;;;;;;;0.8;0.8;;;;;;;11.5;100.0;100230;;;;
2022/09/26 04:46:00;;;;;;;0.8;0.8;;;;;;;11.4;100.0;100210;;;;
2022/09/26 04:47:00;;;;;;;0.8;0.8;;;;;;;11.4;100.0;100210;;;;
2022/09/26 04:48:00;;;;;;;0.8;0.8;;;;;;;11.5;100.0;100210;;;;
2022/09/26 04:49:00;;;;;;;0.8;0.8;;;;;;;11.5;100.0;100210;;;;
2022/09/26 04:50:00;;;;;;;0.8;0.8;;;;;;;11.5;100.0;100210;;;;
2022/09/26 04:51:03;;;;;;;0.8;0.8;;;;;;;11.5;100.0;100210;;;;
2022/09/26 04:52:00;;;;;;;0.8;0.8;;;;;;;11.4;100.0;100210;;;;
2022/09/26 04:53:00;;;;;;;0.8;0.8;;;;;;;11.4;100.0;100210;;;;
2022/09/26 04:54:00;;;;;;;0.9;0.9;;;;;;;11.4;100.0;100200;;;;
2022/09/26 04:55:00;;;;;;;0.9;0.9;;;;;;;11.4;100.0;100200;;;;
2022/09/26 04:56:00;;;;;;;0.9;0.9;;;;;;;11.5;100.0;100200;;;;
2022/09/26 04:57:00;;;;;;;0.9;0.9;;;;;;;11.5;100.0;100200;;;;
2022/09/26 04:58:01;;;;;;;0.9;0.9;;;;;;;11.4;100.0;100180;;;;
2022/09/26 04:59:01;;;;;;;0.9;0.9;;;;;;;11.4;100.0;100180;;;;
2022/09/26 05:00:00;;;;;;;0.9;0.9;;;;;;;11.5;100.0;100180;;;;
2022/09/26 05:01:01;;;;;;;0.9;0.9;;;;;;;11.5;100.0;100180;;;;
2022/09/26 05:02:01;;;;;;;0.9;0.9;;;;;;;11.3;100.0;100170;;;;
2022/09/26 05:03:00;;;;;;;0.9;0.9;;;;;;;11.3;100.0;100170;;;;
2022/09/26 05:04:00;;;;;;;0.9;0.9;;;;;;;11.2;100.0;100160;;;;
2022/09/26 05:05:00;;;;;;;0.9;0.9;;;;;;;11.2;100.0;100160;;;;
2022/09/26 05:06:00;;;;;;;0.9;0.9;;;;;;;11.3;100.0;100160;;;;
2022/09/26 05:07:00;;;;;;;0.9;0.9;;;;;;;11.3;100.0;100160;;;;
2022/09/26 05:08:00;;;;;;;0.9;0.9;;;;;;;11.5;100.0;100150;;;;
2022/09/26 05:09:00;;;;;;;0.9;0.9;;;;;;;11.5;100.0;100150;;;;
2022/09/26 05:10:00;;;;;;;0.9;0.9;;;;;;;11.5;100.0;100160;;;;
2022/09/26 05:11:01;;;;;;;0.9;0.9;;;;;;;11.5;100.0;100160;;;;
2022/09/26 05:12:00;;;;;;;0.9;0.9;;;;;;;11.4;100.0;100160;;;;
2022/09/26 05:13:02;;;;;;;0.9;0.9;;;;;;;11.4;100.0;100160;;;;
2022/09/26 05:14:02;;;;;;;0.9;0.9;;;;;;;11.4;100.0;100160;;;;
2022/09/26 05:15:00;;;;;;;0.9;0.9;;;;;;;11.4;100.0;100160;;;;
2022/09/26 05:16:01;;;;;;;0.9;0.9;;;;;;;11.4;100.0;100160;;;;
2022/09/26 05:17:01;;;;;;;0.9;0.9;;;;;;;11.4;100.0;100160;;;;
2022/09/26 05:18:00;;;;;;;0.9;0.9;;;;;;;11.5;100.0;100150;;;;
2022/09/26 05:19:00;;;;;;;0.9;0.9;;;;;;;11.5;100.0;100150;;;;
2022/09/26 05:20:00;;;;;;;0.9;0.9;;;;;;;11.4;100.0;100140;;;;
2022/09/26 05:21:01;;;;;;;0.9;0.9;;;;;;;11.4;100.0;100140;;;;
2022/09/26 05:22:00;;;;;;;0.9;0.9;;;;;;;11.3;100.0;100140;;;;
2022/09/26 05:23:00;;;;;;;0.9;0.9;;;;;;;11.3;100.0;100140;;;;
2022/09/26 05:27:00;;;;;;;0.9;0.9;;;;;;;11.3;100.0;100130;;;;
2022/09/26 05:28:00;;;;;;;0.9;0.9;;;;;;;11.3;100.0;100130;;;;
2022/09/26 05:29:08;;;;;;;0.9;0.9;;;;;;;11.3;100.0;100130;;;;
2022/09/26 05:30:00;;;;;;;0.9;0.9;;;;;;;11.3;100.0;100130;;;;
2022/09/26 05:31:00;;;;;;;0.9;0.9;;;;;;;11.3;100.0;100130;;;;
2022/09/26 05:32:00;;;;;;;0.9;0.9;;;;;;;11.2;100.0;100120;;;;
2022/09/26 05:33:00;;;;;;;0.9;0.9;;;;;;;11.2;100.0;100120;;;;
2022/09/26 05:34:00;;;;;;;0.8;0.8;;;;;;;11.2;100.0;100120;;;;
2022/09/26 05:35:00;;;;;;;0.8;0.8;;;;;;;11.2;100.0;100120;;;;
2022/09/26 05:36:00;;;;;;;0.8;0.8;;;;;;;11.2;100.0;100120;;;;
2022/09/26 05:37:00;;;;;;;0.8;0.8;;;;;;;11.2;100.0;100120;;;;
2022/09/26 05:38:01;;;;;;;0.8;0.8;;;;;;;11.2;100.0;100110;;;;
2022/09/26 05:39:00;;;;;;;0.8;0.8;;;;;;;11.2;100.0;100110;;;;
2022/09/26 05:41:00;;;;;;;0.8;0.8;;;;;;;11.2;100.0;100110;;;;
2022/09/26 05:42:00;;;;;;;0.8;0.8;;;;;;;11.2;100.0;100110;;;;
2022/09/26 05:43:00;;;;;;;0.8;0.8;;;;;;;11.2;100.0;100110;;;;
2022/09/26 05:44:00;;;;;;;0.8;0.8;;;;;;;11.1;100.0;100110;;;;
2022/09/26 05:45:02;;;;;;;0.8;0.8;;;;;;;11.1;100.0;100110;;;;
2022/09/26 05:46:02;;;;;;;0.8;0.8;;;;;;;11.1;100.0;100110;;;;
2022/09/26 05:47:00;;;;;;;0.8;0.8;;;;;;;11.1;100.0;100110;;;;
2022/09/26 05:48:00;;;;;;;0.8;0.8;;;;;;;11.1;100.0;100110;;;;
2022/09/26 05:49:00;;;;;;;0.8;0.8;;;;;;;11.1;100.0;100110;;;;
2022/09/26 05:50:00;;;;;;;0.8;0.8;;;;;;;11.1;100.0;100110;;;;
2022/09/26 05:51:01;;;;;;;0.8;0.8;;;;;;;11.1;100.0;100110;;;;
2022/09/26 05:52:02;;;;;;;0.8;0.8;;;;;;;11.1;100.0;100110;;;;
2022/09/26 05:53:00;;;;;;;0.8;0.8;;;;;;;11.1;100.0;100110;;;;
2022/09/26 05:54:00;;;;;;;0.9;0.9;;;;;;;11.1;100.0;100100;;;;
2022/09/26 05:55:00;;;;;;;0.9;0.9;;;;;;;11.1;100.0;100100;;;;
2022/09/26 05:56:00;;;;;;;0.9;0.9;;;;;;;11.1;100.0;100100;;;;
2022/09/26 05:57:00;;;;;;;0.9;0.9;;;;;;;11.1;100.0;100100;;;;
2022/09/26 05:58:00;;;;;;;0.9;0.9;;;;;;;11.1;100.0;100100;;;;
2022/09/26 05:59:00;;;;;;;0.9;0.9;;;;;;;11.1;100.0;100100;;;;
2022/09/26 06:00:01;;;;;;;0.9;0.9;;;;;;;11.1;100.0;100100;;;;
2022/09/26 06:01:03;;;;;;;0.9;0.9;;;;;;;11.1;100.0;100100;;;;
2022/09/26 06:02:00;;;;;;;0.9;0.9;;;;;;;11.1;100.0;100100;;;;
2022/09/26 06:03:02;;;;;;;0.9;0.9;;;;;;;11.1;100.0;100100;;;;
2022/09/26 06:04:01;;;;;;;0.9;0.9;;;;;;;11.2;100.0;100100;;;;
2022/09/26 06:05:00;;;;;;;0.9;0.9;;;;;;;11.2;100.0;100100;;;;
2022/09/26 06:06:01;;;;;;;0.9;0.9;;;;;;;11.2;100.0;100100;;;;
2022/09/26 06:07:00;;;;;;;0.9;0.9;;;;;;;11.2;100.0;100100;;;;
2022/09/26 06:08:00;;;;;;;0.9;0.9;;;;;;;11.2;100.0;100090;;;;
2022/09/26 06:09:02;;;;;;;0.9;0.9;;;;;;;11.2;100.0;100090;;;;
2022/09/26 06:10:00;;;;;;;0.9;0.9;;;;;;;11.2;100.0;100090;;;;
2022/09/26 06:11:02;;;;;;;0.9;0.9;;;;;;;11.2;100.0;100090;;;;
2022/09/26 06:12:00;;;;;;;0.9;0.9;;;;;;;11.2;100.0;100080;;;;
2022/09/26 06:13:01;;;;;;;0.9;0.9;;;;;;;11.2;100.0;100080;;;;
2022/09/26 06:14:00;;;;;;;0.8;0.8;;;;;;;11.3;100.0;100070;;;;
2022/09/26 06:15:00;;;;;;;0.8;0.8;;;;;;;11.3;100.0;100070;;;;
2022/09/26 06:16:04;;;;;;;0.8;0.8;;;;;;;11.3;100.0;100070;;;;
2022/09/26 06:17:00;;;;;;;0.8;0.8;;;;;;;11.3;100.0;100070;;;;
2022/09/26 06:18:03;;;;;;;0.8;0.8;;;;;;;11.2;100.0;100050;;;;
2022/09/26 06:19:01;;;;;;;0.8;0.8;;;;;;;11.2;100.0;100050;;;;
2022/09/26 06:20:00;;;;;;;0.8;0.8;;;;;;;11.3;100.0;100050;;;;
2022/09/26 06:21:01;;;;;;;0.8;0.8;;;;;;;11.3;100.0;100050;;;;
2022/09/26 06:22:00;;;;;;;0.8;0.8;;;;;;;11.3;100.0;100050;;;;
2022/09/26 06:23:00;;;;;;;0.8;0.8;;;;;;;11.3;100.0;100050;;;;
2022/09/26 06:24:00;;;;;;;0.8;0.8;;;;;;;11.3;100.0;100040;;;;
2022/09/26 06:25:00;;;;;;;0.8;0.8;;;;;;;11.3;100.0;100040;;;;
2022/09/26 06:26:02;;;;;;;0.8;0.8;;;;;;;11.4;100.0;100040;;;;
2022/09/26 06:27:00;;;;;;;0.8;0.8;;;;;;;11.4;100.0;100040;;;;
2022/09/26 06:28:00;;;;;;;0.8;0.8;;;;;;;11.3;100.0;100040;;;;
2022/09/26 06:29:01;;;;;;;0.8;0.8;;;;;;;11.3;100.0;100040;;;;
2022/09/26 06:30:00;;;;;;;0.8;0.8;;;;;;;11.2;100.0;100030;;;;